Terminal Aerodrome Forecast
Issued by NWS

Home | Current Version | Previous Version | Text Only | Print | Product List | Glossary On
Versions: 1 2 3 4 5 6 7 8 9 10 11 12 13 14 15
000
FTUS46 KSEW 170500
TAFBFI
TAF
KBFI 170520Z 1706/1806 15005KT P6SM BKN150
     FM171200 00000KT P6SM BKN090 BKN150
     FM172000 22005KT P6SM VCSH SCT050 OVC090
     FM180400 VRB04KT P6SM VCSH SCT030 OVC060=

USA.gov is the U.S. government's official web portal to all federal, state and local government web resources and services.